Time;durP1;ratioP1;P1;durP2;ratioP2;P2;SDS_P1;SDS_P2;PMS_P1;PMS_P2;Temp;Humidity;BMP_temperature;BMP_pressure;BME280_temperature;BME280_humidity;BME280_pressure;Samples;Min_cycle;Max_cycle;Signal;HPM_P1;HPM_P2
2023/08/22 00:00:47;;;;;;;8.23;6.18;;;;;;;23.92;100.00;96941.88;5059339;28;20203;-65
2023/08/22 00:03:13;;;;;;;6.65;6.03;;;;;;;23.93;100.00;96944.38;5053551;28;20200;-63
2023/08/22 00:05:41;;;;;;;7.03;6.03;;;;;;;23.92;100.00;96941.88;5047530;28;20200;-64
2023/08/22 00:08:08;;;;;;;7.43;5.93;;;;;;;23.88;100.00;96935.28;5044532;28;20207;-64
2023/08/22 00:10:38;;;;;;;8.23;6.18;;;;;;;23.87;100.00;96933.63;5043317;28;20199;-64
2023/08/22 00:13:04;;;;;;;6.47;6.05;;;;;;;23.85;100.00;96930.28;5043133;28;20204;-66
2023/08/22 00:15:31;;;;;;;6.15;5.65;;;;;;;23.78;100.00;96919.53;5043910;28;20212;-64
2023/08/22 00:17:58;;;;;;;6.70;6.10;;;;;;;23.76;100.00;96919.78;5042746;28;20231;-65
2023/08/22 00:20:26;;;;;;;6.85;6.13;;;;;;;23.72;100.00;96926.66;5024976;28;20223;-66
2023/08/22 00:22:52;;;;;;;7.05;6.35;;;;;;;23.65;100.00;96925.88;5042600;28;20206;-64
2023/08/22 00:25:19;;;;;;;6.55;6.00;;;;;;;23.62;100.00;96920.91;5042497;28;20211;-66
2023/08/22 00:27:48;;;;;;;7.28;5.72;;;;;;;23.60;100.00;96924.88;5041446;28;20207;-64
2023/08/22 00:30:15;;;;;;;7.78;6.15;;;;;;;23.57;100.00;96923.44;5043015;28;20212;-67
2023/08/22 00:32:43;;;;;;;7.00;6.30;;;;;;;23.54;100.00;96923.88;5042274;28;20218;-65
2023/08/22 00:35:10;;;;;;;6.70;6.10;;;;;;;23.55;100.00;96925.53;5042142;28;20203;-65
2023/08/22 00:37:36;;;;;;;7.05;6.35;;;;;;;23.55;100.00;96925.53;5042074;28;20231;-64
2023/08/22 00:40:05;;;;;;;6.20;5.70;;;;;;;23.57;100.00;96925.31;5023434;28;20204;-65
2023/08/22 00:42:31;;;;;;;6.72;6.13;;;;;;;23.58;100.00;96930.50;5041284;28;20637;-66
2023/08/22 00:44:59;;;;;;;6.82;6.00;;;;;;;23.57;100.00;96926.13;5041809;28;20206;-64
2023/08/22 00:47:26;;;;;;;8.07;6.50;;;;;;;23.56;100.00;96923.66;5041351;28;20218;-66
2023/08/22 00:49:53;;;;;;;7.20;6.10;;;;;;;23.50;100.00;96930.75;5041739;28;20547;-63
2023/08/22 00:52:20;;;;;;;6.43;5.82;;;;;;;23.49;100.00;96920.97;5040513;28;20517;-64
2023/08/22 00:54:48;;;;;;;7.63;6.80;;;;;;;23.46;100.00;96923.28;5041137;28;20218;-66
2023/08/22 00:57:15;;;;;;;6.75;6.25;;;;;;;23.45;100.00;96929.75;5040528;28;20270;-65
2023/08/22 00:59:42;;;;;;;7.43;6.35;;;;;;;23.42;100.00;96925.59;5041046;28;20211;-66
2023/08/22 01:02:10;;;;;;;6.88;6.25;;;;;;;23.35;100.00;96924.78;5040679;28;20223;-64
2023/08/22 01:04:37;;;;;;;8.50;6.68;;;;;;;23.36;100.00;96923.75;5041353;28;20246;-64
2023/08/22 01:07:10;;;;;;;6.60;6.10;;;;;;;23.33;100.00;96918.78;5040797;28;20195;-64
2023/08/22 01:09:43;;;;;;;7.70;7.00;;;;;;;23.24;100.00;96914.66;5041108;28;20199;-65
2023/08/22 01:12:14;;;;;;;7.85;6.68;;;;;;;23.24;100.00;96923.59;5041193;28;20203;-65
2023/08/22 01:14:46;;;;;;;7.78;6.88;;;;;;;23.18;100.00;96919.06;5040713;28;20211;-64
2023/08/22 01:17:14;;;;;;;7.78;7.00;;;;;;;23.11;100.00;96926.34;5039962;28;20223;-64
2023/08/22 01:19:41;;;;;;;7.28;6.57;;;;;;;23.08;100.00;96925.97;5040923;28;20210;-64
2023/08/22 01:22:12;;;;;;;7.15;6.45;;;;;;;23.07;100.00;96930.53;5040717;28;20215;-65
2023/08/22 01:24:39;;;;;;;7.32;6.72;;;;;;;23.05;100.00;96923.69;5040617;28;20290;-63
2023/08/22 01:27:06;;;;;;;8.38;6.53;;;;;;;23.00;100.00;96928.88;5039506;28;20638;-63
2023/08/22 01:29:36;;;;;;;9.65;6.55;;;;;;;22.99;100.00;96928.06;5040416;28;20640;-65
2023/08/22 01:32:07;;;;;;;6.88;6.28;;;;;;;22.94;100.00;96925.19;5045119;28;20295;-65
2023/08/22 01:34:36;;;;;;;7.50;6.72;;;;;;;22.88;100.00;96934.16;5043986;28;20215;-64
2023/08/22 01:37:05;;;;;;;6.78;6.18;;;;;;;22.86;100.00;96933.50;5044361;28;20235;-63
2023/08/22 01:39:34;;;;;;;6.78;6.18;;;;;;;22.86;100.00;96935.38;5043957;28;20208;-65
2023/08/22 01:42:01;;;;;;;8.55;6.68;;;;;;;22.85;100.00;96933.75;5043506;28;20239;-65
2023/08/22 01:44:29;;;;;;;7.20;6.50;;;;;;;22.80;100.00;96937.91;5044388;28;20220;-66
2023/08/22 01:46:55;;;;;;;7.10;6.55;;;;;;;22.79;100.00;96941.63;5044481;28;20248;-64
2023/08/22 01:49:22;;;;;;;7.35;6.80;;;;;;;22.80;100.00;96939.75;5046116;28;20204;-64
2023/08/22 01:51:48;;;;;;;6.82;6.22;;;;;;;22.79;100.00;96936.22;5044703;28;20218;-64
2023/08/22 01:54:15;;;;;;;9.02;6.75;;;;;;;22.75;100.00;96934.16;5044490;28;20211;-65
2023/08/22 01:56:44;;;;;;;8.73;7.45;;;;;;;22.73;100.00;96934.41;5044423;28;20242;-64
2023/08/22 01:59:12;;;;;;;10.82;7.25;;;;;;;22.68;100.00;96933.34;5044587;28;20203;-64
2023/08/22 02:01:38;;;;;;;8.40;6.78;;;;;;;22.71;100.00;96933.75;5045858;28;20204;-65
2023/08/22 02:04:06;;;;;;;8.23;7.28;;;;;;;22.69;100.00;96938.56;5045136;28;20239;-64
2023/08/22 02:06:33;;;;;;;9.10;6.57;;;;;;;22.66;100.00;96930.84;5046852;28;20221;-65
2023/08/22 02:08:59;;;;;;;7.43;6.70;;;;;;;22.68;100.00;96933.34;5049155;28;20611;-65
2023/08/22 02:11:26;;;;;;;7.07;6.40;;;;;;;22.67;100.00;96940.59;5045781;28;20206;-70
2023/08/22 02:13:55;;;;;;;7.30;6.65;;;;;;;22.64;100.00;96935.63;5045493;28;20212;-64
2023/08/22 02:16:21;;;;;;;7.25;6.75;;;;;;;22.61;100.00;96933.34;5045025;28;20211;-64
2023/08/22 02:18:47;;;;;;;8.15;6.70;;;;;;;22.57;100.00;96936.66;5044764;28;20223;-67
2023/08/22 02:21:14;;;;;;;9.02;6.70;;;;;;;22.55;100.00;96936.91;5044475;28;20211;-65
2023/08/22 02:23:40;;;;;;;9.13;7.10;;;;;;;22.51;100.00;96935.66;5045271;28;20273;-64
2023/08/22 02:26:07;;;;;;;8.18;6.90;;;;;;;22.54;100.00;96942.47;5043530;28;20279;-65
2023/08/22 02:28:33;;;;;;;7.93;6.93;;;;;;;;;;5043930;28;20204;-62
2023/08/22 02:31:03;;;;;;;7.57;6.88;;;;;;;22.50;100.00;96934.00;5043600;28;20210;-64
2023/08/22 02:33:29;;;;;;;8.30;7.53;;;;;;;22.50;100.00;96928.59;5043593;28;20195;-64
2023/08/22 02:35:56;;;;;;;7.88;6.75;;;;;;;22.46;100.00;96926.56;5044314;28;20525;-64
2023/08/22 02:38:23;;;;;;;7.30;6.60;;;;;;;22.42;100.00;96922.63;5043366;28;20314;-67
2023/08/22 02:40:49;;;;;;;9.23;7.47;;;;;;;22.43;100.00;96922.38;5043192;28;20204;-67
2023/08/22 02:43:16;;;;;;;7.10;6.40;;;;;;;22.42;100.00;96931.53;5042570;28;20204;-64
2023/08/22 02:45:45;;;;;;;9.32;7.25;;;;;;;22.37;100.00;96931.31;5044123;28;20211;-65
2023/08/22 02:48:13;;;;;;;7.25;6.45;;;;;;;22.35;100.00;96921.81;5043183;28;20244;-64
2023/08/22 02:50:40;;;;;;;7.88;7.10;;;;;;;22.25;100.00;96927.59;5042982;28;20218;-66
2023/08/22 02:53:09;;;;;;;7.60;6.90;;;;;;;22.29;100.00;96928.84;5043422;28;20211;-63
2023/08/22 02:55:36;;;;;;;7.55;6.95;;;;;;;22.26;100.00;96927.41;5042912;28;20668;-65
2023/08/22 02:58:03;;;;;;;7.47;6.78;;;;;;;22.24;100.00;96924.09;5043700;28;20330;-65
2023/08/22 03:00:29;;;;;;;7.47;6.88;;;;;;;22.23;100.00;96932.38;5042698;28;20210;-63
2023/08/22 03:02:56;;;;;;;7.65;7.03;;;;;;;22.24;100.00;96932.19;5043029;28;20234;-63
2023/08/22 03:05:24;;;;;;;8.63;7.60;;;;;;;22.23;100.00;96924.28;5043351;28;20245;-65
2023/08/22 03:07:52;;;;;;;8.00;7.13;;;;;;;22.20;100.00;96932.81;5042541;28;20242;-64
2023/08/22 03:10:19;;;;;;;7.30;6.60;;;;;;;22.16;100.00;96921.63;5025438;28;20219;-65
2023/08/22 03:12:46;;;;;;;7.63;6.93;;;;;;;22.16;100.00;96935.09;5041949;28;20199;-64
2023/08/22 03:15:13;;;;;;;8.68;7.38;;;;;;;22.14;100.00;96936.34;5042640;28;20199;-64
2023/08/22 03:17:40;;;;;;;7.78;7.15;;;;;;;22.15;100.00;96933.41;5042586;28;20226;-65
2023/08/22 03:20:09;;;;;;;7.28;6.63;;;;;;;22.13;100.00;96935.50;5042211;28;20222;-66
2023/08/22 03:22:37;;;;;;;7.72;7.10;;;;;;;22.07;100.00;96920.16;5042468;28;20293;-65
2023/08/22 03:25:04;;;;;;;7.68;6.97;;;;;;;22.10;100.00;96922.47;5042151;28;20219;-64
2023/08/22 03:27:30;;;;;;;7.93;7.13;;;;;;;22.06;100.00;96921.22;5042430;28;20231;-64
2023/08/22 03:29:56;;;;;;;7.93;7.22;;;;;;;22.05;100.00;96922.25;5041972;28;20658;-66
2023/08/22 03:32:23;;;;;;;8.05;7.35;;;;;;;22.11;100.00;96923.25;5041765;28;20199;-64
2023/08/22 03:34:50;;;;;;;8.90;7.22;;;;;;;22.13;100.00;96926.59;5041757;28;20212;-65
2023/08/22 03:37:16;;;;;;;7.97;7.18;;;;;;;22.14;100.00;96928.25;5041887;28;20227;-65
2023/08/22 03:39:44;;;;;;;7.95;7.25;;;;;;;22.11;100.00;96926.78;5042270;28;20208;-64
2023/08/22 03:42:11;;;;;;;8.05;7.30;;;;;;;22.10;100.00;96930.53;5041839;28;20200;-64
2023/08/22 03:44:38;;;;;;;8.30;7.45;;;;;;;22.05;100.00;96926.78;5042476;28;20648;-67
2023/08/22 03:47:05;;;;;;;8.00;7.40;;;;;;;22.01;100.00;96930.94;5063608;28;20266;-65
2023/08/22 03:49:31;;;;;;;8.10;7.35;;;;;;;22.03;100.00;96928.88;5062431;28;20219;-67
2023/08/22 03:51:58;;;;;;;7.90;7.30;;;;;;;21.94;100.00;96930.94;5044477;28;20541;-65
2023/08/22 03:54:24;;;;;;;8.07;7.45;;;;;;;21.96;100.00;96944.22;5040154;28;20207;-65
2023/08/22 03:56:52;;;;;;;7.40;6.88;;;;;;;21.94;100.00;96935.50;5042062;28;20206;-64
2023/08/22 03:59:18;;;;;;;8.10;7.38;;;;;;;21.90;100.00;96939.59;5041483;28;20663;-64
2023/08/22 04:01:45;;;;;;;7.45;6.85;;;;;;;21.88;100.00;96939.81;5041381;28;20218;-63
2023/08/22 04:04:14;;;;;;;9.63;7.38;;;;;;;21.87;100.00;96938.16;5051537;28;20250;-71
2023/08/22 04:06:40;;;;;;;8.23;7.47;;;;;;;21.84;100.00;96942.09;5062988;28;20179;-68
2023/08/22 04:09:07;;;;;;;8.20;7.40;;;;;;;21.80;100.00;96946.22;5068060;28;20268;-66
2023/08/22 04:11:34;;;;;;;7.35;6.65;;;;;;;21.80;100.00;96940.84;5045453;28;20211;-64
2023/08/22 04:14:01;;;;;;;8.38;7.68;;;;;;;21.78;100.00;96942.94;5040414;28;20214;-64
2023/08/22 04:16:28;;;;;;;10.60;8.43;;;;;;;21.72;100.00;96949.13;5045155;28;20200;-66
2023/08/22 04:18:55;;;;;;;10.52;9.50;;;;;;;21.72;100.00;96949.13;5044705;28;20228;-65
2023/08/22 04:21:21;;;;;;;11.43;10.38;;;;;;;21.73;100.00;96948.09;5045515;28;20303;-65
2023/08/22 04:23:47;;;;;;;9.02;8.18;;;;;;;21.73;100.00;96950.78;5043547;28;20327;-66
2023/08/22 04:26:15;;;;;;;8.95;7.65;;;;;;;21.73;100.00;96950.78;5043677;28;20199;-63
2023/08/22 04:28:42;;;;;;;7.90;7.25;;;;;;;21.73;100.00;96945.41;5042641;28;20219;-64
2023/08/22 04:31:09;;;;;;;8.00;7.30;;;;;;;21.73;100.00;96948.09;5042132;28;20200;-64
2023/08/22 04:33:37;;;;;;;8.15;7.35;;;;;;;21.72;100.00;96946.41;5042170;28;20195;-64
2023/08/22 04:36:06;;;;;;;8.23;7.32;;;;;;;21.72;100.00;96956.34;5024985;28;20215;-63
2023/08/22 04:38:34;;;;;;;8.68;7.75;;;;;;;21.70;100.00;96945.81;5041327;28;20668;-64
2023/08/22 04:41:01;;;;;;;8.27;7.00;;;;;;;21.66;100.00;96952.63;5041697;28;20207;-63
2023/08/22 04:43:28;;;;;;;8.25;7.53;;;;;;;21.65;100.00;96952.81;5041262;28;20543;-64
2023/08/22 04:45:54;;;;;;;8.10;7.45;;;;;;;21.67;100.00;96953.47;5041333;28;20277;-64
2023/08/22 04:48:23;;;;;;;7.70;7.10;;;;;;;21.68;100.00;96957.81;5041341;28;20222;-63
2023/08/22 04:50:51;;;;;;;7.78;6.97;;;;;;;21.69;100.00;96960.28;5041599;28;20195;-63
2023/08/22 04:53:17;;;;;;;8.25;7.43;;;;;;;21.70;100.00;96964.66;5041693;28;20290;-67
2023/08/22 04:55:44;;;;;;;7.43;6.78;;;;;;;21.69;100.00;96965.69;5040835;28;20207;-63
2023/08/22 04:58:11;;;;;;;7.75;7.05;;;;;;;21.70;100.00;96966.50;5041880;28;20215;-65
2023/08/22 05:00:37;;;;;;;8.13;7.32;;;;;;;21.69;100.00;96960.28;5041324;28;20207;-64
2023/08/22 05:03:05;;;;;;;7.70;6.90;;;;;;;21.69;100.00;96965.69;5041486;28;20199;-65
2023/08/22 05:05:32;;;;;;;9.60;7.57;;;;;;;21.70;100.00;96967.34;5040449;28;20246;-64
2023/08/22 05:08:02;;;;;;;10.38;9.48;;;;;;;21.75;100.00;96959.47;5040309;28;20230;-65
2023/08/22 05:10:28;;;;;;;10.50;8.43;;;;;;;21.80;100.00;96957.00;5023128;28;20654;-63
2023/08/22 05:12:55;;;;;;;9.95;7.57;;;;;;;21.81;100.00;96960.53;5040458;28;20226;-63
2023/08/22 05:15:22;;;;;;;9.00;7.93;;;;;;;21.80;100.00;96957.00;5041506;28;20207;-64
2023/08/22 05:17:49;;;;;;;8.27;7.43;;;;;;;21.88;100.00;96949.75;5040652;28;20683;-66
2023/08/22 05:20:17;;;;;;;8.52;7.65;;;;;;;21.94;100.00;96957.03;5041025;28;20215;-64
2023/08/22 05:22:46;;;;;;;8.82;8.13;;;;;;;21.99;100.00;96954.56;5040486;28;20195;-63
2023/08/22 05:25:12;;;;;;;8.63;7.68;;;;;;;22.07;100.00;96962.44;5040889;28;20203;-64
2023/08/22 05:27:39;;;;;;;10.65;9.30;;;;;;;22.11;100.00;96969.06;5040064;28;20196;-64
2023/08/22 05:30:07;;;;;;;9.85;8.85;;;;;;;22.22;100.00;96966.56;5040035;28;20211;-63
2023/08/22 05:32:34;;;;;;;8.68;7.75;;;;;;;22.33;100.00;96973.19;5040283;28;20210;-64
2023/08/22 05:35:02;;;;;;;8.65;7.90;;;;;;;22.43;100.00;96968.22;5041099;28;20195;-62
2023/08/22 05:37:28;;;;;;;8.52;7.78;;;;;;;22.60;100.00;96977.50;5040024;28;20647;-64
2023/08/22 05:39:59;;;;;;;7.80;7.22;;;;;;;22.81;100.00;96977.28;5040699;28;20273;-64
2023/08/22 05:42:25;;;;;;;8.02;7.28;;;;;;;23.01;100.00;96971.00;5040280;28;20258;-64
2023/08/22 05:44:52;;;;;;;8.38;7.57;;;;;;;23.36;100.00;96976.88;5040836;28;20268;-65
2023/08/22 05:47:18;;;;;;;7.47;6.80;;;;;;;23.67;100.00;96972.38;5041329;28;20205;-64
2023/08/22 05:49:45;;;;;;;8.60;7.80;;;;;;;23.91;100.00;96973.50;5040336;28;20200;-63
2023/08/22 05:52:11;;;;;;;8.75;8.00;;;;;;;24.20;100.00;96970.16;5041442;28;20199;-65
2023/08/22 05:54:38;;;;;;;8.68;7.93;;;;;;;24.50;100.00;96974.91;5041030;28;20207;-64
2023/08/22 05:57:06;;;;;;;9.02;8.23;;;;;;;24.77;100.00;96984.41;5039965;28;20211;-64
2023/08/22 05:59:32;;;;;;;9.10;7.93;;;;;;;25.06;100.00;96982.88;5040022;28;20228;-66
2023/08/22 06:01:59;;;;;;;10.50;7.82;;;;;;;25.26;100.00;96983.44;5040135;28;20204;-63
2023/08/22 06:04:25;;;;;;;10.13;7.90;;;;;;;25.40;100.00;96984.94;5039978;28;20223;-64
2023/08/22 06:06:52;;;;;;;8.82;7.38;;;;;;;25.59;100.00;96991.19;5040247;28;20211;-63
2023/08/22 06:09:18;;;;;;;8.98;7.70;;;;;;;25.74;100.00;96992.44;5040236;28;20214;-66
2023/08/22 06:11:45;;;;;;;9.55;8.40;;;;;;;25.90;100.00;96993.66;5038655;28;20647;-64
2023/08/22 06:14:13;;;;;;;10.02;7.88;;;;;;;26.03;100.00;96992.66;5039719;28;20226;-65
2023/08/22 06:16:40;;;;;;;8.82;7.55;;;;;;;26.24;100.00;96997.56;5041306;28;20564;-64
2023/08/22 06:19:06;;;;;;;8.52;7.40;;;;;;;26.37;100.00;96996.50;5043033;28;20357;-64
2023/08/22 06:21:33;;;;;;;8.30;7.50;;;;;;;26.50;100.00;97005.25;5043149;28;20628;-64
2023/08/22 06:24:02;;;;;;;8.88;7.97;;;;;;;26.64;99.88;97003.97;5045396;28;20555;-65
2023/08/22 06:26:31;;;;;;;7.95;7.25;;;;;;;26.89;99.64;97011.09;5045886;28;20298;-64
2023/08/22 06:28:57;;;;;;;8.45;7.55;;;;;;;27.03;98.97;96998.94;5048038;28;20196;-64
2023/08/22 06:31:26;;;;;;;7.88;7.10;;;;;;;27.24;95.58;97002.91;5044845;28;20195;-64
2023/08/22 06:33:52;;;;;;;9.60;7.30;;;;;;;27.38;93.95;96999.69;5044447;28;20204;-64
2023/08/22 06:36:19;;;;;;;11.05;7.35;;;;;;;27.56;95.59;96998.72;5043558;28;20881;-63
2023/08/22 06:38:46;;;;;;;10.50;7.70;;;;;;;27.68;92.07;97000.31;5045046;28;20228;-65
2023/08/22 06:41:13;;;;;;;8.02;7.20;;;;;;;27.94;90.79;96998.91;5043332;28;20223;-64
2023/08/22 06:43:39;;;;;;;9.52;7.97;;;;;;;28.05;87.59;96991.75;5043809;28;20231;-63
2023/08/22 06:46:06;;;;;;;12.38;7.80;;;;;;;28.20;86.78;96997.47;5044248;28;20269;-67
2023/08/22 06:48:33;;;;;;;9.05;7.50;;;;;;;28.38;85.59;96999.97;5044127;28;20191;-64
2023/08/22 06:51:00;;;;;;;8.68;7.75;;;;;;;28.67;85.16;97003.47;5043135;28;20864;-66
2023/08/22 06:53:26;;;;;;;10.02;7.50;;;;;;;28.90;83.74;97007.91;5043979;28;20204;-66
2023/08/22 06:55:55;;;;;;;7.70;7.00;;;;;;;29.11;84.71;96998.94;5044500;28;20214;-65
2023/08/22 06:58:21;;;;;;;9.93;7.40;;;;;;;29.01;81.65;97004.25;5042648;28;20238;-64
2023/08/22 07:00:48;;;;;;;8.35;7.55;;;;;;;29.28;81.70;97002.47;5044637;28;20196;-64
2023/08/22 07:03:15;;;;;;;8.23;7.15;;;;;;;29.36;82.74;97006.66;5043508;28;20229;-65
2023/08/22 07:05:43;;;;;;;10.27;7.95;;;;;;;29.50;81.51;97000.59;5043517;28;20211;-64
2023/08/22 07:08:09;;;;;;;8.77;7.97;;;;;;;29.44;80.60;96995.34;5043240;28;20208;-65
2023/08/22 07:10:35;;;;;;;12.80;8.30;;;;;;;29.56;79.25;97006.91;5043526;28;20195;-63
2023/08/22 07:13:02;;;;;;;11.63;7.82;;;;;;;29.77;80.21;96999.78;5044370;28;20210;-63
2023/08/22 07:15:29;;;;;;;13.10;7.45;;;;;;;29.77;82.37;97010.69;5043169;28;20293;-65
2023/08/22 07:17:56;;;;;;;8.27;7.47;;;;;;;29.96;78.86;97004.69;5042184;28;20203;-64
2023/08/22 07:20:24;;;;;;;7.82;7.13;;;;;;;30.22;77.98;97011.19;5042700;28;20250;-63
2023/08/22 07:22:52;;;;;;;9.52;7.72;;;;;;;30.04;76.86;97014.31;5041990;28;20222;-66
2023/08/22 07:25:18;;;;;;;9.50;7.60;;;;;;;30.32;75.54;97014.03;5042498;28;20214;-65
2023/08/22 07:27:45;;;;;;;10.82;7.57;;;;;;;30.41;75.24;97020.69;5041292;28;20227;-65
2023/08/22 07:30:13;;;;;;;11.93;7.75;;;;;;;30.38;77.66;97021.19;5042998;28;20278;-64
2023/08/22 07:32:40;;;;;;;8.50;7.38;;;;;;;30.30;77.90;97018.91;5042571;28;20208;-63
2023/08/22 07:35:07;;;;;;;11.18;8.00;;;;;;;30.41;77.07;97020.69;5042775;28;20206;-65
2023/08/22 07:37:34;;;;;;;11.77;8.02;;;;;;;30.68;74.99;97025.28;5041269;28;20199;-65
2023/08/22 07:40:04;;;;;;;8.65;7.68;;;;;;;30.33;74.92;97029.31;5041555;28;20223;-64
2023/08/22 07:42:31;;;;;;;10.10;7.55;;;;;;;30.51;74.10;97020.78;5040815;28;20942;-64
2023/08/22 07:44:57;;;;;;;8.18;7.40;;;;;;;30.54;77.55;97017.53;5041937;28;20199;-65
2023/08/22 07:47:24;;;;;;;8.98;7.90;;;;;;;30.67;75.94;97023.66;5041375;28;20222;-64
2023/08/22 07:49:51;;;;;;;7.78;7.13;;;;;;;30.63;78.50;97019.78;5041794;28;20646;-65
2023/08/22 07:52:17;;;;;;;9.25;7.10;;;;;;;30.70;77.65;97017.66;5041927;28;20215;-66
2023/08/22 07:54:46;;;;;;;9.02;7.07;;;;;;;30.83;76.92;97017.19;5041951;28;20203;-65
2023/08/22 07:57:15;;;;;;;8.90;8.10;;;;;;;30.89;73.40;97021.63;5041981;28;20238;-64
2023/08/22 07:59:41;;;;;;;8.60;7.78;;;;;;;30.95;72.79;97015.09;5042084;28;20230;-65
2023/08/22 08:02:08;;;;;;;8.02;7.25;;;;;;;31.23;74.10;97020.22;5041263;28;20223;-66
2023/08/22 08:04:34;;;;;;;9.48;7.43;;;;;;;31.17;73.93;97028.66;5042162;28;20219;-67
2023/08/22 08:07:01;;;;;;;9.13;8.23;;;;;;;31.23;71.07;97017.50;5041727;28;20214;-66
2023/08/22 08:09:27;;;;;;;10.93;7.35;;;;;;;31.29;72.99;97013.69;5041255;28;20621;-64
2023/08/22 08:11:54;;;;;;;9.77;7.72;;;;;;;31.29;70.12;97021.06;5041537;28;20212;-65
2023/08/22 08:14:22;;;;;;;10.77;7.55;;;;;;;31.43;70.46;97017.59;5042763;28;20211;-66
2023/08/22 08:16:48;;;;;;;7.80;7.10;;;;;;;31.75;70.96;97022.94;5041017;28;20218;-64
2023/08/22 08:19:16;;;;;;;10.60;7.57;;;;;;;31.64;71.66;97015.00;5042026;28;20224;-64
2023/08/22 08:21:42;;;;;;;11.40;7.45;;;;;;;31.88;71.36;97011.53;5041594;28;20523;-64
2023/08/22 08:24:09;;;;;;;13.20;7.80;;;;;;;31.78;69.04;97014.22;5041739;28;20530;-65
2023/08/22 08:26:35;;;;;;;13.93;8.43;;;;;;;31.96;69.97;97015.63;5040672;28;20231;-64
2023/08/22 08:29:02;;;;;;;8.80;7.90;;;;;;;31.78;67.20;97013.41;5041690;28;20207;-65
2023/08/22 08:31:30;;;;;;;8.73;7.93;;;;;;;31.99;68.46;97015.13;5042507;28;20204;-67
2023/08/22 08:33:57;;;;;;;10.23;7.80;;;;;;;32.03;71.03;97010.72;5043204;28;20203;-65
2023/08/22 08:36:23;;;;;;;11.60;7.78;;;;;;;32.36;70.17;97010.28;5043239;28;20196;-64
2023/08/22 08:38:51;;;;;;;12.13;7.97;;;;;;;32.21;66.53;97012.97;5042269;28;20222;-65
2023/08/22 08:41:19;;;;;;;8.48;7.55;;;;;;;32.46;67.26;97015.75;5041137;28;20200;-65
2023/08/22 08:43:47;;;;;;;9.65;7.30;;;;;;;32.61;66.57;97012.22;5041718;28;20203;-65
2023/08/22 08:46:13;;;;;;;8.73;7.57;;;;;;;32.43;66.55;97010.81;5041969;28;20196;-64
2023/08/22 08:48:42;;;;;;;11.40;7.50;;;;;;;32.55;69.83;97008.66;5041869;28;20218;-64
2023/08/22 08:51:10;;;;;;;8.95;7.30;;;;;;;32.82;67.66;97010.28;5040759;28;20203;-67
2023/08/22 08:53:38;;;;;;;10.38;7.57;;;;;;;32.61;64.07;97008.66;5041662;28;20208;-64
2023/08/22 08:56:09;;;;;;;8.63;7.50;;;;;;;32.89;69.85;97008.91;5041405;28;20211;-65
2023/08/22 08:58:37;;;;;;;8.57;7.60;;;;;;;33.01;66.61;97005.91;5041821;28;20501;-65
2023/08/22 09:01:03;;;;;;;10.75;7.47;;;;;;;32.93;63.93;97000.97;5024106;28;20207;-64
2023/08/22 09:03:31;;;;;;;8.98;7.63;;;;;;;33.06;63.98;97005.88;5041956;28;20239;-65
2023/08/22 09:05:59;;;;;;;7.97;7.20;;;;;;;32.95;64.50;97006.97;5042148;28;20659;-64
2023/08/22 09:08:27;;;;;;;8.82;7.93;;;;;;;33.09;64.17;96996.28;5022618;28;20200;-65
2023/08/22 09:10:54;;;;;;;9.30;7.85;;;;;;;32.69;62.85;96997.16;5045065;28;20196;-65
2023/08/22 09:13:27;;;;;;;8.52;7.72;;;;;;;33.23;63.34;97003.66;5042870;28;20218;-65
2023/08/22 09:15:59;;;;;;;8.98;7.95;;;;;;;33.45;64.58;96990.44;5045562;28;20223;-64
2023/08/22 09:18:27;;;;;;;9.15;7.75;;;;;;;33.68;63.87;96993.66;5042752;28;20195;-65
2023/08/22 09:20:53;;;;;;;9.50;8.50;;;;;;;33.87;63.96;96992.72;5041595;28;20231;-66
2023/08/22 09:23:28;;;;;;;8.35;7.63;;;;;;;33.65;62.03;96989.56;5042632;28;20200;-63
2023/08/22 09:25:54;;;;;;;10.20;7.70;;;;;;;33.77;65.25;96991.97;5043284;28;20210;-65
2023/08/22 09:28:21;;;;;;;8.85;8.02;;;;;;;33.92;63.48;96994.63;5042981;28;20270;-65
2023/08/22 09:30:53;;;;;;;11.98;7.78;;;;;;;33.99;61.95;96984.16;5042833;28;20207;-65
2023/08/22 09:33:20;;;;;;;8.63;7.72;;;;;;;34.01;61.45;96984.72;5043322;28;20192;-65
2023/08/22 09:35:48;;;;;;;7.85;7.07;;;;;;;33.95;62.89;96986.66;5042921;28;20207;-66
2023/08/22 09:38:15;;;;;;;7.78;7.13;;;;;;;33.78;60.85;96985.38;5043437;28;20206;-65
2023/08/22 09:40:55;;;;;;;9.00;8.10;;;;;;;34.22;61.53;96983.50;5042198;28;20243;-64
2023/08/22 09:43:22;;;;;;;9.05;7.70;;;;;;;34.39;61.01;96983.09;5043840;28;20257;-66
2023/08/22 09:45:51;;;;;;;8.57;7.32;;;;;;;33.98;60.91;96977.03;5042473;28;20211;-66
2023/08/22 09:48:23;;;;;;;8.23;7.45;;;;;;;34.16;61.16;96979.13;5043434;28;20206;-66
2023/08/22 09:50:51;;;;;;;9.43;7.53;;;;;;;34.39;63.32;96978.44;5042128;28;20641;-66
2023/08/22 09:53:19;;;;;;;9.52;7.63;;;;;;;34.16;64.00;96976.38;5045595;28;20442;-64
2023/08/22 09:55:46;;;;;;;8.38;7.63;;;;;;;34.17;61.46;96971.72;5043316;28;20211;-67
2023/08/22 09:58:14;;;;;;;8.45;7.65;;;;;;;34.36;59.44;96973.53;5043573;28;20204;-67
2023/08/22 10:00:42;;;;;;;8.35;7.40;;;;;;;34.49;58.94;96972.84;5044004;28;20236;-64
2023/08/22 10:03:09;;;;;;;8.45;7.72;;;;;;;34.72;58.28;96976.78;5044872;28;20215;-67
2023/08/22 10:05:36;;;;;;;8.48;7.68;;;;;;;34.80;56.08;96972.59;5043687;28;20269;-65
2023/08/22 10:08:04;;;;;;;9.35;7.07;;;;;;;34.62;56.12;96970.53;5045638;28;20207;-66
2023/08/22 10:10:32;;;;;;;8.27;6.43;;;;;;;34.80;56.74;96961.59;5045866;28;20262;-66
2023/08/22 10:13:02;;;;;;;9.00;7.55;;;;;;;34.96;57.29;96963.94;5043916;28;20341;-65
2023/08/22 10:15:35;;;;;;;8.27;7.53;;;;;;;34.71;57.10;96961.44;5045031;28;20533;-66
2023/08/22 10:18:02;;;;;;;7.55;6.88;;;;;;;34.57;55.83;96954.13;5045199;28;20199;-65
2023/08/22 10:20:28;;;;;;;11.02;7.35;;;;;;;34.48;56.80;96954.72;5046731;28;20227;-66
2023/08/22 10:22:55;;;;;;;9.38;7.35;;;;;;;34.72;57.33;96954.00;5046262;28;20215;-65
2023/08/22 10:25:48;;;;;;;8.25;7.10;;;;;;;34.78;57.78;96953.66;5046722;28;20565;-65
2023/08/22 10:28:15;;;;;;;7.05;6.40;;;;;;;34.90;54.70;96956.00;5046905;28;20203;-67
2023/08/22 10:31:04;;;;;;;7.28;6.57;;;;;;;34.60;55.14;96953.53;5045522;28;20581;-65
2023/08/22 10:33:32;;;;;;;9.00;7.20;;;;;;;34.79;56.20;96943.50;5043805;28;21431;-65
2023/08/22 10:36:07;;;;;;;8.70;6.90;;;;;;;34.89;57.04;96948.88;5048390;28;20257;-65
2023/08/22 10:38:51;;;;;;;7.72;7.00;;;;;;;34.88;55.36;96948.06;5048827;28;20239;-65
2023/08/22 10:41:17;;;;;;;7.90;6.70;;;;;;;34.76;55.12;96946.81;5046734;28;20219;-66
2023/08/22 10:43:44;;;;;;;9.88;7.00;;;;;;;35.11;54.31;96949.19;5044102;28;20203;-65
2023/08/22 10:46:13;;;;;;;8.43;7.20;;;;;;;34.78;52.62;96939.94;5043907;28;20199;-66
2023/08/22 10:48:39;;;;;;;7.57;6.88;;;;;;;34.77;54.57;96940.22;5044627;28;20207;-65
2023/08/22 10:51:07;;;;;;;7.13;6.60;;;;;;;35.14;56.01;96945.91;5043532;28;20202;-65
2023/08/22 10:53:41;;;;;;;9.50;6.75;;;;;;;34.91;57.02;96935.66;5042819;28;20655;-65
2023/08/22 10:56:18;;;;;;;7.60;7.00;;;;;;;35.42;54.98;96936.75;5044197;28;20261;-66
2023/08/22 10:58:44;;;;;;;7.97;7.20;;;;;;;35.41;53.18;96929.59;5042443;28;20209;-66
2023/08/22 11:01:14;;;;;;;7.03;6.25;;;;;;;35.52;56.03;96930.28;5043937;28;20571;-65
2023/08/22 11:03:42;;;;;;;8.27;6.75;;;;;;;35.11;54.98;96927.19;5043154;28;20244;-66
2023/08/22 11:06:18;;;;;;;7.18;6.57;;;;;;;35.12;54.56;96926.09;5043631;28;20199;-66
2023/08/22 11:08:44;;;;;;;7.30;6.53;;;;;;;35.13;53.85;96919.50;5042973;28;20891;-67
2023/08/22 11:11:13;;;;;;;7.28;6.53;;;;;;;35.29;54.49;96915.44;5043587;28;20689;-65
2023/08/22 11:13:39;;;;;;;7.22;6.53;;;;;;;35.47;54.93;96916.59;5042519;28;20219;-66
2023/08/22 11:16:11;;;;;;;7.40;6.80;;;;;;;35.45;54.24;96905.91;5042687;28;20283;-64
2023/08/22 11:18:39;;;;;;;7.50;6.25;;;;;;;35.39;52.72;96914.53;5042018;28;20203;-65
2023/08/22 11:21:06;;;;;;;7.35;6.85;;;;;;;35.32;52.83;96911.31;5042581;28;20242;-67
2023/08/22 11:23:34;;;;;;;8.23;6.93;;;;;;;35.50;54.67;96912.47;5042305;28;20216;-64
2023/08/22 11:26:02;;;;;;;7.93;6.53;;;;;;;35.51;53.11;96914.06;5042152;28;20612;-66
2023/08/22 11:28:32;;;;;;;8.98;6.85;;;;;;;35.57;52.69;96915.66;5041410;28;20687;-65
2023/08/22 11:30:59;;;;;;;7.45;6.75;;;;;;;35.56;51.74;96914.03;5042211;28;20227;-66